sensor_id;sensor_type;location;lat;lon;timestamp;P1;durP1;ratioP1;P2;durP2;ratioP2
24357;SDS011;13668;52.154;5.580;2023-10-19T00:01:57;10.02;;;7.00;;
24357;SDS011;13668;52.154;5.580;2023-10-19T00:04:24;10.30;;;6.85;;
24357;SDS011;13668;52.154;5.580;2023-10-19T00:06:53;12.57;;;7.57;;
24357;SDS011;13668;52.154;5.580;2023-10-19T00:09:19;12.00;;;7.20;;
24357;SDS011;13668;52.154;5.580;2023-10-19T00:11:45;11.82;;;7.70;;
24357;SDS011;13668;52.154;5.580;2023-10-19T00:14:16;12.25;;;8.15;;
24357;SDS011;13668;52.154;5.580;2023-10-19T00:16:43;12.43;;;8.45;;
24357;SDS011;13668;52.154;5.580;2023-10-19T00:19:15;12.07;;;7.82;;
24357;SDS011;13668;52.154;5.580;2023-10-19T00:21:44;12.45;;;8.35;;
24357;SDS011;13668;52.154;5.580;2023-10-19T00:24:20;16.20;;;8.75;;
24357;SDS011;13668;52.154;5.580;2023-10-19T00:26:47;10.23;;;7.50;;
24357;SDS011;13668;52.154;5.580;2023-10-19T00:29:13;13.40;;;8.38;;
24357;SDS011;13668;52.154;5.580;2023-10-19T00:32:01;13.15;;;7.53;;
24357;SDS011;13668;52.154;5.580;2023-10-19T00:34:31;19.17;;;10.27;;
24357;SDS011;13668;52.154;5.580;2023-10-19T00:36:58;17.48;;;10.50;;
24357;SDS011;13668;52.154;5.580;2023-10-19T00:39:32;16.20;;;10.07;;
24357;SDS011;13668;52.154;5.580;2023-10-19T00:42:07;18.52;;;10.05;;
24357;SDS011;13668;52.154;5.580;2023-10-19T00:44:33;16.45;;;9.27;;
24357;SDS011;13668;52.154;5.580;2023-10-19T00:47:07;18.80;;;10.80;;
24357;SDS011;13668;52.154;5.580;2023-10-19T00:49:38;17.52;;;10.60;;
24357;SDS011;13668;52.154;5.580;2023-10-19T00:52:04;16.38;;;10.23;;
24357;SDS011;13668;52.154;5.580;2023-10-19T00:54:44;17.13;;;10.55;;
24357;SDS011;13668;52.154;5.580;2023-10-19T00:57:17;15.57;;;8.93;;
24357;SDS011;13668;52.154;5.580;2023-10-19T00:59:57;17.73;;;9.82;;
24357;SDS011;13668;52.154;5.580;2023-10-19T01:02:37;16.63;;;10.30;;
24357;SDS011;13668;52.154;5.580;2023-10-19T01:05:09;16.58;;;9.95;;
24357;SDS011;13668;52.154;5.580;2023-10-19T01:07:38;15.52;;;9.68;;
24357;SDS011;13668;52.154;5.580;2023-10-19T01:10:04;17.17;;;10.90;;
24357;SDS011;13668;52.154;5.580;2023-10-19T01:12:37;16.02;;;10.75;;
24357;SDS011;13668;52.154;5.580;2023-10-19T01:15:07;17.35;;;9.23;;
24357;SDS011;13668;52.154;5.580;2023-10-19T01:17:42;17.17;;;10.85;;
24357;SDS011;13668;52.154;5.580;2023-10-19T01:20:13;18.90;;;10.70;;
24357;SDS011;13668;52.154;5.580;2023-10-19T01:22:50;17.23;;;10.75;;
24357;SDS011;13668;52.154;5.580;2023-10-19T01:25:20;17.80;;;11.05;;
24357;SDS011;13668;52.154;5.580;2023-10-19T01:28:00;16.45;;;10.15;;
24357;SDS011;13668;52.154;5.580;2023-10-19T01:30:32;15.23;;;9.93;;
24357;SDS011;13668;52.154;5.580;2023-10-19T01:32:58;18.25;;;10.82;;
24357;SDS011;13668;52.154;5.580;2023-10-19T01:35:24;20.23;;;11.25;;
24357;SDS011;13668;52.154;5.580;2023-10-19T01:37:52;18.73;;;11.02;;
24357;SDS011;13668;52.154;5.580;2023-10-19T01:40:18;17.23;;;10.57;;
24357;SDS011;13668;52.154;5.580;2023-10-19T01:42:46;18.83;;;11.20;;
24357;SDS011;13668;52.154;5.580;2023-10-19T01:45:12;17.52;;;10.05;;
24357;SDS011;13668;52.154;5.580;2023-10-19T01:47:39;16.13;;;11.02;;
24357;SDS011;13668;52.154;5.580;2023-10-19T01:50:08;19.38;;;11.25;;
24357;SDS011;13668;52.154;5.580;2023-10-19T01:52:44;16.50;;;10.65;;
24357;SDS011;13668;52.154;5.580;2023-10-19T01:55:10;15.30;;;10.13;;
24357;SDS011;13668;52.154;5.580;2023-10-19T01:57:37;16.30;;;10.32;;
24357;SDS011;13668;52.154;5.580;2023-10-19T02:00:04;14.35;;;9.65;;
24357;SDS011;13668;52.154;5.580;2023-10-19T02:02:36;18.73;;;10.73;;
24357;SDS011;13668;52.154;5.580;2023-10-19T02:05:02;16.92;;;10.07;;
24357;SDS011;13668;52.154;5.580;2023-10-19T02:07:34;17.30;;;11.25;;
24357;SDS011;13668;52.154;5.580;2023-10-19T02:10:00;16.42;;;9.85;;
24357;SDS011;13668;52.154;5.580;2023-10-19T02:12:27;20.30;;;11.10;;
24357;SDS011;13668;52.154;5.580;2023-10-19T02:14:54;15.23;;;9.85;;
24357;SDS011;13668;52.154;5.580;2023-10-19T02:17:20;20.63;;;11.13;;
24357;SDS011;13668;52.154;5.580;2023-10-19T02:19:48;23.20;;;13.30;;
24357;SDS011;13668;52.154;5.580;2023-10-19T02:22:14;16.67;;;11.43;;
24357;SDS011;13668;52.154;5.580;2023-10-19T02:24:42;18.05;;;11.18;;
24357;SDS011;13668;52.154;5.580;2023-10-19T02:27:07;19.90;;;10.07;;
24357;SDS011;13668;52.154;5.580;2023-10-19T02:29:34;19.85;;;10.93;;
24357;SDS011;13668;52.154;5.580;2023-10-19T02:32:01;17.23;;;11.45;;
24357;SDS011;13668;52.154;5.580;2023-10-19T02:34:29;16.60;;;10.73;;
24357;SDS011;13668;52.154;5.580;2023-10-19T02:36:55;17.83;;;10.98;;
24357;SDS011;13668;52.154;5.580;2023-10-19T02:39:21;19.38;;;10.85;;
24357;SDS011;13668;52.154;5.580;2023-10-19T02:41:53;17.73;;;11.40;;
24357;SDS011;13668;52.154;5.580;2023-10-19T02:44:19;19.77;;;11.18;;
24357;SDS011;13668;52.154;5.580;2023-10-19T02:46:51;18.13;;;10.00;;
24357;SDS011;13668;52.154;5.580;2023-10-19T02:49:18;15.20;;;9.88;;
24357;SDS011;13668;52.154;5.580;2023-10-19T02:51:47;15.80;;;9.93;;
24357;SDS011;13668;52.154;5.580;2023-10-19T02:54:17;15.98;;;10.65;;
24357;SDS011;13668;52.154;5.580;2023-10-19T02:56:44;18.67;;;10.75;;
24357;SDS011;13668;52.154;5.580;2023-10-19T02:59:18;17.17;;;10.55;;
24357;SDS011;13668;52.154;5.580;2023-10-19T03:01:48;19.70;;;10.93;;
24357;SDS011;13668;52.154;5.580;2023-10-19T03:04:14;17.17;;;10.15;;
24357;SDS011;13668;52.154;5.580;2023-10-19T03:06:41;16.70;;;10.38;;
24357;SDS011;13668;52.154;5.580;2023-10-19T03:09:09;15.68;;;9.15;;
24357;SDS011;13668;52.154;5.580;2023-10-19T03:11:39;15.20;;;9.93;;
24357;SDS011;13668;52.154;5.580;2023-10-19T03:14:06;16.00;;;9.80;;
24357;SDS011;13668;52.154;5.580;2023-10-19T03:16:32;18.27;;;9.73;;
24357;SDS011;13668;52.154;5.580;2023-10-19T03:18:59;18.83;;;9.98;;
24357;SDS011;13668;52.154;5.580;2023-10-19T03:21:25;16.80;;;9.40;;
24357;SDS011;13668;52.154;5.580;2023-10-19T03:23:53;14.20;;;9.68;;
24357;SDS011;13668;52.154;5.580;2023-10-19T03:26:19;12.48;;;8.75;;
24357;SDS011;13668;52.154;5.580;2023-10-19T03:29:01;15.23;;;9.27;;
24357;SDS011;13668;52.154;5.580;2023-10-19T03:31:33;17.17;;;9.70;;
24357;SDS011;13668;52.154;5.580;2023-10-19T03:34:08;16.10;;;9.07;;
24357;SDS011;13668;52.154;5.580;2023-10-19T03:36:35;22.48;;;10.75;;
24357;SDS011;13668;52.154;5.580;2023-10-19T03:39:01;11.13;;;8.35;;
24357;SDS011;13668;52.154;5.580;2023-10-19T03:41:36;13.00;;;8.68;;
24357;SDS011;13668;52.154;5.580;2023-10-19T03:44:04;12.30;;;7.85;;
24357;SDS011;13668;52.154;5.580;2023-10-19T03:46:30;11.45;;;7.30;;
24357;SDS011;13668;52.154;5.580;2023-10-19T03:48:59;12.68;;;7.10;;
24357;SDS011;13668;52.154;5.580;2023-10-19T03:51:35;14.98;;;7.22;;
24357;SDS011;13668;52.154;5.580;2023-10-19T03:54:08;11.30;;;7.03;;
24357;SDS011;13668;52.154;5.580;2023-10-19T03:56:48;9.55;;;7.00;;
24357;SDS011;13668;52.154;5.580;2023-10-19T03:59:17;9.80;;;6.65;;
24357;SDS011;13668;52.154;5.580;2023-10-19T04:01:45;11.50;;;7.30;;
24357;SDS011;13668;52.154;5.580;2023-10-19T04:04:11;12.10;;;7.32;;
24357;SDS011;13668;52.154;5.580;2023-10-19T04:06:37;15.48;;;7.18;;
24357;SDS011;13668;52.154;5.580;2023-10-19T04:09:03;10.00;;;6.85;;
24357;SDS011;13668;52.154;5.580;2023-10-19T04:11:31;9.48;;;6.13;;
24357;SDS011;13668;52.154;5.580;2023-10-19T04:14:13;9.85;;;6.13;;
24357;SDS011;13668;52.154;5.580;2023-10-19T04:16:40;8.55;;;5.75;;
24357;SDS011;13668;52.154;5.580;2023-10-19T04:19:08;9.40;;;5.60;;
24357;SDS011;13668;52.154;5.580;2023-10-19T04:21:35;8.07;;;5.20;;
24357;SDS011;13668;52.154;5.580;2023-10-19T04:24:04;11.90;;;5.78;;
24357;SDS011;13668;52.154;5.580;2023-10-19T04:26:32;8.77;;;5.78;;
24357;SDS011;13668;52.154;5.580;2023-10-19T04:29:02;9.55;;;5.75;;
24357;SDS011;13668;52.154;5.580;2023-10-19T04:31:34;7.20;;;5.22;;
24357;SDS011;13668;52.154;5.580;2023-10-19T04:34:02;9.15;;;5.68;;
24357;SDS011;13668;52.154;5.580;2023-10-19T04:36:32;7.95;;;5.47;;
24357;SDS011;13668;52.154;5.580;2023-10-19T04:38:59;6.20;;;4.55;;
24357;SDS011;13668;52.154;5.580;2023-10-19T04:41:25;7.30;;;4.22;;
24357;SDS011;13668;52.154;5.580;2023-10-19T04:43:54;7.32;;;4.20;;
24357;SDS011;13668;52.154;5.580;2023-10-19T04:46:23;5.60;;;4.20;;
24357;SDS011;13668;52.154;5.580;2023-10-19T04:48:49;5.47;;;3.95;;
24357;SDS011;13668;52.154;5.580;2023-10-19T04:51:16;5.13;;;3.92;;
24357;SDS011;13668;52.154;5.580;2023-10-19T04:53:42;5.20;;;3.63;;
24357;SDS011;13668;52.154;5.580;2023-10-19T04:56:08;5.28;;;3.75;;
24357;SDS011;13668;52.154;5.580;2023-10-19T04:58:35;6.32;;;3.40;;
24357;SDS011;13668;52.154;5.580;2023-10-19T05:01:01;4.60;;;2.85;;
24357;SDS011;13668;52.154;5.580;2023-10-19T05:03:28;4.72;;;2.95;;
24357;SDS011;13668;52.154;5.580;2023-10-19T05:05:54;2.50;;;2.10;;
24357;SDS011;13668;52.154;5.580;2023-10-19T05:08:21;5.40;;;3.17;;
24357;SDS011;13668;52.154;5.580;2023-10-19T05:10:50;3.22;;;2.75;;
24357;SDS011;13668;52.154;5.580;2023-10-19T05:13:16;4.65;;;2.42;;
24357;SDS011;13668;52.154;5.580;2023-10-19T05:15:41;3.40;;;2.70;;
24357;SDS011;13668;52.154;5.580;2023-10-19T05:18:08;7.22;;;3.05;;
24357;SDS011;13668;52.154;5.580;2023-10-19T05:20:33;4.60;;;3.45;;
24357;SDS011;13668;52.154;5.580;2023-10-19T05:23:02;4.88;;;2.78;;
24357;SDS011;13668;52.154;5.580;2023-10-19T05:25:29;3.90;;;2.65;;
24357;SDS011;13668;52.154;5.580;2023-10-19T05:27:55;4.82;;;2.80;;
24357;SDS011;13668;52.154;5.580;2023-10-19T05:30:21;3.30;;;2.67;;
24357;SDS011;13668;52.154;5.580;2023-10-19T05:32:47;2.38;;;2.13;;
24357;SDS011;13668;52.154;5.580;2023-10-19T05:35:14;4.53;;;3.53;;
24357;SDS011;13668;52.154;5.580;2023-10-19T05:37:47;4.68;;;2.85;;
24357;SDS011;13668;52.154;5.580;2023-10-19T05:40:14;2.17;;;1.83;;
24357;SDS011;13668;52.154;5.580;2023-10-19T05:42:41;2.63;;;2.20;;
24357;SDS011;13668;52.154;5.580;2023-10-19T05:45:07;2.97;;;2.08;;
24357;SDS011;13668;52.154;5.580;2023-10-19T05:47:33;4.35;;;2.30;;
24357;SDS011;13668;52.154;5.580;2023-10-19T05:49:59;3.40;;;2.63;;
24357;SDS011;13668;52.154;5.580;2023-10-19T05:52:25;3.08;;;2.28;;
24357;SDS011;13668;52.154;5.580;2023-10-19T05:54:51;3.40;;;2.03;;
24357;SDS011;13668;52.154;5.580;2023-10-19T05:57:18;3.88;;;2.05;;
24357;SDS011;13668;52.154;5.580;2023-10-19T05:59:45;4.63;;;2.88;;
24357;SDS011;13668;52.154;5.580;2023-10-19T06:02:11;3.97;;;2.25;;
24357;SDS011;13668;52.154;5.580;2023-10-19T06:04:36;3.38;;;2.65;;
24357;SDS011;13668;52.154;5.580;2023-10-19T06:07:02;3.33;;;2.40;;
24357;SDS011;13668;52.154;5.580;2023-10-19T06:09:28;2.90;;;2.50;;
24357;SDS011;13668;52.154;5.580;2023-10-19T06:11:55;4.03;;;2.53;;
24357;SDS011;13668;52.154;5.580;2023-10-19T06:14:21;5.60;;;2.60;;
24357;SDS011;13668;52.154;5.580;2023-10-19T06:16:46;2.28;;;2.08;;
24357;SDS011;13668;52.154;5.580;2023-10-19T06:19:12;3.47;;;2.38;;
24357;SDS011;13668;52.154;5.580;2023-10-19T06:21:38;3.13;;;2.28;;
24357;SDS011;13668;52.154;5.580;2023-10-19T06:24:05;3.42;;;2.47;;
24357;SDS011;13668;52.154;5.580;2023-10-19T06:26:31;3.30;;;2.40;;
24357;SDS011;13668;52.154;5.580;2023-10-19T06:28:57;3.08;;;2.35;;
24357;SDS011;13668;52.154;5.580;2023-10-19T06:31:24;4.07;;;2.50;;
24357;SDS011;13668;52.154;5.580;2023-10-19T06:33:51;4.57;;;3.15;;
24357;SDS011;13668;52.154;5.580;2023-10-19T06:36:17;3.22;;;2.50;;
24357;SDS011;13668;52.154;5.580;2023-10-19T06:38:44;8.70;;;3.00;;
24357;SDS011;13668;52.154;5.580;2023-10-19T06:41:13;4.90;;;2.80;;
24357;SDS011;13668;52.154;5.580;2023-10-19T06:43:40;3.08;;;2.53;;
24357;SDS011;13668;52.154;5.580;2023-10-19T06:46:06;3.70;;;2.80;;
24357;SDS011;13668;52.154;5.580;2023-10-19T06:48:32;5.82;;;3.55;;
24357;SDS011;13668;52.154;5.580;2023-10-19T06:50:58;8.57;;;3.30;;
24357;SDS011;13668;52.154;5.580;2023-10-19T06:53:25;3.15;;;2.60;;
24357;SDS011;13668;52.154;5.580;2023-10-19T06:55:51;4.55;;;3.17;;
24357;SDS011;13668;52.154;5.580;2023-10-19T06:58:17;7.20;;;3.42;;
24357;SDS011;13668;52.154;5.580;2023-10-19T07:00:44;4.47;;;2.80;;
24357;SDS011;13668;52.154;5.580;2023-10-19T07:03:20;5.50;;;2.72;;
24357;SDS011;13668;52.154;5.580;2023-10-19T07:05:47;7.55;;;3.70;;
24357;SDS011;13668;52.154;5.580;2023-10-19T07:08:14;5.72;;;3.78;;
24357;SDS011;13668;52.154;5.580;2023-10-19T07:10:40;5.80;;;3.22;;
24357;SDS011;13668;52.154;5.580;2023-10-19T07:13:08;5.68;;;3.58;;
24357;SDS011;13668;52.154;5.580;2023-10-19T07:15:34;5.10;;;3.47;;
24357;SDS011;13668;52.154;5.580;2023-10-19T07:18:00;5.05;;;2.83;;
24357;SDS011;13668;52.154;5.580;2023-10-19T07:20:25;9.95;;;3.15;;
24357;SDS011;13668;52.154;5.580;2023-10-19T07:22:57;4.55;;;2.65;;
24357;SDS011;13668;52.154;5.580;2023-10-19T07:25:42;6.10;;;3.25;;
24357;SDS011;13668;52.154;5.580;2023-10-19T07:28:09;3.95;;;3.03;;
24357;SDS011;13668;52.154;5.580;2023-10-19T07:30:35;4.00;;;2.92;;
24357;SDS011;13668;52.154;5.580;2023-10-19T07:33:01;4.30;;;3.13;;
24357;SDS011;13668;52.154;5.580;2023-10-19T07:35:29;9.68;;;4.40;;
24357;SDS011;13668;52.154;5.580;2023-10-19T07:37:59;3.95;;;3.47;;
24357;SDS011;13668;52.154;5.580;2023-10-19T07:40:26;4.95;;;3.10;;
24357;SDS011;13668;52.154;5.580;2023-10-19T07:42:52;4.15;;;3.08;;
24357;SDS011;13668;52.154;5.580;2023-10-19T07:45:20;4.45;;;3.60;;
24357;SDS011;13668;52.154;5.580;2023-10-19T07:47:46;4.95;;;3.10;;
24357;SDS011;13668;52.154;5.580;2023-10-19T07:50:13;6.63;;;3.35;;
24357;SDS011;13668;52.154;5.580;2023-10-19T07:52:45;3.65;;;2.80;;
24357;SDS011;13668;52.154;5.580;2023-10-19T07:55:13;7.43;;;3.40;;
24357;SDS011;13668;52.154;5.580;2023-10-19T07:57:40;4.80;;;3.75;;
24357;SDS011;13668;52.154;5.580;2023-10-19T08:00:06;6.35;;;2.88;;
24357;SDS011;13668;52.154;5.580;2023-10-19T08:02:33;6.53;;;3.13;;
24357;SDS011;13668;52.154;5.580;2023-10-19T08:05:00;6.95;;;3.83;;
24357;SDS011;13668;52.154;5.580;2023-10-19T08:07:29;5.63;;;3.55;;
24357;SDS011;13668;52.154;5.580;2023-10-19T08:09:55;5.30;;;3.60;;
24357;SDS011;13668;52.154;5.580;2023-10-19T08:12:24;4.57;;;2.83;;
24357;SDS011;13668;52.154;5.580;2023-10-19T08:14:51;4.45;;;2.88;;
24357;SDS011;13668;52.154;5.580;2023-10-19T08:17:17;5.35;;;2.50;;
24357;SDS011;13668;52.154;5.580;2023-10-19T08:19:43;5.55;;;2.85;;
24357;SDS011;13668;52.154;5.580;2023-10-19T08:22:09;4.22;;;2.45;;
24357;SDS011;13668;52.154;5.580;2023-10-19T08:24:35;4.85;;;2.80;;
24357;SDS011;13668;52.154;5.580;2023-10-19T08:27:01;4.97;;;3.08;;
24357;SDS011;13668;52.154;5.580;2023-10-19T08:29:30;7.78;;;3.00;;
24357;SDS011;13668;52.154;5.580;2023-10-19T08:31:56;4.93;;;2.90;;
24357;SDS011;13668;52.154;5.580;2023-10-19T08:34:22;5.38;;;2.55;;
24357;SDS011;13668;52.154;5.580;2023-10-19T08:36:50;5.38;;;2.83;;
24357;SDS011;13668;52.154;5.580;2023-10-19T08:39:17;3.88;;;3.17;;
24357;SDS011;13668;52.154;5.580;2023-10-19T08:41:43;7.28;;;2.85;;
24357;SDS011;13668;52.154;5.580;2023-10-19T08:44:09;4.38;;;2.97;;
24357;SDS011;13668;52.154;5.580;2023-10-19T08:46:40;2.85;;;2.05;;
24357;SDS011;13668;52.154;5.580;2023-10-19T08:49:08;4.68;;;3.20;;
24357;SDS011;13668;52.154;5.580;2023-10-19T08:51:35;7.65;;;2.85;;
24357;SDS011;13668;52.154;5.580;2023-10-19T08:54:02;4.72;;;2.97;;
24357;SDS011;13668;52.154;5.580;2023-10-19T08:56:30;5.15;;;2.50;;
24357;SDS011;13668;52.154;5.580;2023-10-19T08:58:58;4.03;;;2.72;;
24357;SDS011;13668;52.154;5.580;2023-10-19T09:01:24;7.85;;;3.08;;
24357;SDS011;13668;52.154;5.580;2023-10-19T09:03:52;4.88;;;2.78;;
24357;SDS011;13668;52.154;5.580;2023-10-19T09:06:20;5.40;;;2.00;;
24357;SDS011;13668;52.154;5.580;2023-10-19T09:08:47;7.47;;;2.85;;
24357;SDS011;13668;52.154;5.580;2023-10-19T09:11:14;3.58;;;2.78;;
24357;SDS011;13668;52.154;5.580;2023-10-19T09:13:42;3.72;;;2.67;;
24357;SDS011;13668;52.154;5.580;2023-10-19T09:16:09;6.25;;;3.03;;
24357;SDS011;13668;52.154;5.580;2023-10-19T09:18:35;4.18;;;2.60;;
24357;SDS011;13668;52.154;5.580;2023-10-19T09:21:01;7.72;;;3.60;;
24357;SDS011;13668;52.154;5.580;2023-10-19T09:23:30;4.03;;;2.85;;
24357;SDS011;13668;52.154;5.580;2023-10-19T09:25:57;6.07;;;3.00;;
24357;SDS011;13668;52.154;5.580;2023-10-19T09:28:23;4.88;;;2.63;;
24357;SDS011;13668;52.154;5.580;2023-10-19T09:30:50;4.93;;;2.40;;
24357;SDS011;13668;52.154;5.580;2023-10-19T09:33:19;4.25;;;2.60;;
24357;SDS011;13668;52.154;5.580;2023-10-19T09:35:47;9.02;;;2.15;;
24357;SDS011;13668;52.154;5.580;2023-10-19T09:38:16;3.17;;;2.20;;
24357;SDS011;13668;52.154;5.580;2023-10-19T09:40:53;4.85;;;2.33;;
24357;SDS011;13668;52.154;5.580;2023-10-19T09:45:51;6.47;;;3.13;;
24357;SDS011;13668;52.154;5.580;2023-10-19T09:48:19;4.57;;;2.00;;
24357;SDS011;13668;52.154;5.580;2023-10-19T09:50:47;3.70;;;1.98;;
24357;SDS011;13668;52.154;5.580;2023-10-19T09:53:16;4.85;;;1.92;;
24357;SDS011;13668;52.154;5.580;2023-10-19T09:55:43;4.43;;;1.90;;
24357;SDS011;13668;52.154;5.580;2023-10-19T09:58:15;2.10;;;1.90;;
24357;SDS011;13668;52.154;5.580;2023-10-19T10:00:45;4.05;;;2.33;;
24357;SDS011;13668;52.154;5.580;2023-10-19T10:05:57;4.25;;;2.00;;
24357;SDS011;13668;52.154;5.580;2023-10-19T10:10:49;5.82;;;1.52;;
24357;SDS011;13668;52.154;5.580;2023-10-19T10:15:52;3.80;;;1.60;;
24357;SDS011;13668;52.154;5.580;2023-10-19T10:18:19;4.05;;;1.50;;
24357;SDS011;13668;52.154;5.580;2023-10-19T10:20:45;4.18;;;1.52;;
24357;SDS011;13668;52.154;5.580;2023-10-19T10:23:21;6.85;;;1.98;;
24357;SDS011;13668;52.154;5.580;2023-10-19T10:25:57;5.97;;;2.20;;
24357;SDS011;13668;52.154;5.580;2023-10-19T10:28:23;5.03;;;1.50;;
24357;SDS011;13668;52.154;5.580;2023-10-19T10:31:08;3.00;;;1.85;;
24357;SDS011;13668;52.154;5.580;2023-10-19T10:33:38;3.75;;;1.40;;
24357;SDS011;13668;52.154;5.580;2023-10-19T10:36:07;2.17;;;1.40;;
24357;SDS011;13668;52.154;5.580;2023-10-19T10:38:35;3.10;;;1.88;;
24357;SDS011;13668;52.154;5.580;2023-10-19T10:41:01;7.38;;;1.90;;
24357;SDS011;13668;52.154;5.580;2023-10-19T10:43:27;4.20;;;2.42;;
24357;SDS011;13668;52.154;5.580;2023-10-19T10:46:05;4.15;;;1.65;;
24357;SDS011;13668;52.154;5.580;2023-10-19T10:48:40;5.82;;;1.90;;
24357;SDS011;13668;52.154;5.580;2023-10-19T10:51:16;4.35;;;1.85;;
24357;SDS011;13668;52.154;5.580;2023-10-19T10:53:42;4.07;;;2.13;;
24357;SDS011;13668;52.154;5.580;2023-10-19T10:56:08;3.47;;;2.53;;
24357;SDS011;13668;52.154;5.580;2023-10-19T10:58:34;2.40;;;1.98;;
24357;SDS011;13668;52.154;5.580;2023-10-19T11:01:00;5.00;;;2.08;;
24357;SDS011;13668;52.154;5.580;2023-10-19T11:03:27;6.05;;;2.10;;
24357;SDS011;13668;52.154;5.580;2023-10-19T11:05:55;3.08;;;1.88;;
24357;SDS011;13668;52.154;5.580;2023-10-19T11:08:23;2.80;;;1.83;;
24357;SDS011;13668;52.154;5.580;2023-10-19T11:10:49;4.13;;;1.73;;
24357;SDS011;13668;52.154;5.580;2023-10-19T11:13:17;2.85;;;1.80;;
24357;SDS011;13668;52.154;5.580;2023-10-19T11:15:47;3.15;;;2.00;;
24357;SDS011;13668;52.154;5.580;2023-10-19T11:18:27;3.42;;;1.80;;
24357;SDS011;13668;52.154;5.580;2023-10-19T11:20:54;2.97;;;2.15;;
24357;SDS011;13668;52.154;5.580;2023-10-19T11:23:34;6.32;;;2.63;;
24357;SDS011;13668;52.154;5.580;2023-10-19T11:26:00;9.55;;;2.47;;
24357;SDS011;13668;52.154;5.580;2023-10-19T11:28:27;5.30;;;1.88;;
24357;SDS011;13668;52.154;5.580;2023-10-19T11:30:54;3.10;;;1.88;;
24357;SDS011;13668;52.154;5.580;2023-10-19T11:33:20;4.32;;;1.83;;
24357;SDS011;13668;52.154;5.580;2023-10-19T11:35:49;10.77;;;2.05;;
24357;SDS011;13668;52.154;5.580;2023-10-19T11:38:15;4.65;;;2.17;;
24357;SDS011;13668;52.154;5.580;2023-10-19T11:40:42;3.92;;;1.67;;
24357;SDS011;13668;52.154;5.580;2023-10-19T11:43:08;5.05;;;2.30;;
24357;SDS011;13668;52.154;5.580;2023-10-19T11:45:34;5.50;;;1.90;;
24357;SDS011;13668;52.154;5.580;2023-10-19T11:48:00;5.30;;;1.77;;
24357;SDS011;13668;52.154;5.580;2023-10-19T11:50:26;9.18;;;1.80;;
24357;SDS011;13668;52.154;5.580;2023-10-19T11:52:53;6.30;;;1.92;;
24357;SDS011;13668;52.154;5.580;2023-10-19T11:55:21;8.30;;;1.80;;
24357;SDS011;13668;52.154;5.580;2023-10-19T11:57:47;2.88;;;1.88;;
24357;SDS011;13668;52.154;5.580;2023-10-19T12:00:13;7.43;;;2.47;;
24357;SDS011;13668;52.154;5.580;2023-10-19T12:02:46;4.75;;;1.65;;
24357;SDS011;13668;52.154;5.580;2023-10-19T12:05:12;3.70;;;1.48;;
24357;SDS011;13668;52.154;5.580;2023-10-19T12:07:38;7.35;;;1.85;;
24357;SDS011;13668;52.154;5.580;2023-10-19T12:10:06;3.85;;;1.85;;
24357;SDS011;13668;52.154;5.580;2023-10-19T12:12:33;6.93;;;2.10;;
24357;SDS011;13668;52.154;5.580;2023-10-19T12:14:59;7.68;;;2.75;;
24357;SDS011;13668;52.154;5.580;2023-10-19T12:17:25;7.60;;;1.80;;
24357;SDS011;13668;52.154;5.580;2023-10-19T12:19:55;6.55;;;1.75;;
24357;SDS011;13668;52.154;5.580;2023-10-19T12:22:21;5.28;;;1.98;;
24357;SDS011;13668;52.154;5.580;2023-10-19T12:24:49;4.28;;;2.33;;
24357;SDS011;13668;52.154;5.580;2023-10-19T12:27:16;6.82;;;2.00;;
24357;SDS011;13668;52.154;5.580;2023-10-19T12:29:43;4.25;;;2.00;;
24357;SDS011;13668;52.154;5.580;2023-10-19T12:32:09;2.30;;;1.48;;
24357;SDS011;13668;52.154;5.580;2023-10-19T12:34:39;3.15;;;1.70;;
24357;SDS011;13668;52.154;5.580;2023-10-19T12:37:05;6.32;;;1.60;;
24357;SDS011;13668;52.154;5.580;2023-10-19T12:39:33;3.97;;;1.55;;
24357;SDS011;13668;52.154;5.580;2023-10-19T12:42:09;8.95;;;2.42;;
24357;SDS011;13668;52.154;5.580;2023-10-19T12:44:35;2.65;;;1.88;;
24357;SDS011;13668;52.154;5.580;2023-10-19T12:47:05;3.00;;;1.52;;
24357;SDS011;13668;52.154;5.580;2023-10-19T12:49:35;2.35;;;1.38;;
24357;SDS011;13668;52.154;5.580;2023-10-19T12:52:01;4.82;;;1.55;;
24357;SDS011;13668;52.154;5.580;2023-10-19T12:54:32;2.88;;;1.48;;
24357;SDS011;13668;52.154;5.580;2023-10-19T12:56:59;2.38;;;1.35;;
24357;SDS011;13668;52.154;5.580;2023-10-19T12:59:25;3.80;;;1.48;;
24357;SDS011;13668;52.154;5.580;2023-10-19T13:01:52;2.55;;;1.48;;
24357;SDS011;13668;52.154;5.580;2023-10-19T13:04:23;5.03;;;1.50;;
24357;SDS011;13668;52.154;5.580;2023-10-19T13:06:49;4.93;;;1.52;;
24357;SDS011;13668;52.154;5.580;2023-10-19T13:09:15;3.28;;;0.98;;
24357;SDS011;13668;52.154;5.580;2023-10-19T13:11:46;5.88;;;1.52;;
24357;SDS011;13668;52.154;5.580;2023-10-19T13:14:16;2.33;;;1.27;;
24357;SDS011;13668;52.154;5.580;2023-10-19T13:16:42;7.80;;;1.52;;
24357;SDS011;13668;52.154;5.580;2023-10-19T13:19:08;4.43;;;1.50;;
24357;SDS011;13668;52.154;5.580;2023-10-19T13:21:38;5.28;;;1.85;;
24357;SDS011;13668;52.154;5.580;2023-10-19T13:24:04;5.10;;;1.55;;
24357;SDS011;13668;52.154;5.580;2023-10-19T13:26:31;5.35;;;1.33;;
24357;SDS011;13668;52.154;5.580;2023-10-19T13:28:57;5.45;;;1.65;;
24357;SDS011;13668;52.154;5.580;2023-10-19T13:31:23;4.82;;;1.20;;
24357;SDS011;13668;52.154;5.580;2023-10-19T13:33:51;2.72;;;1.17;;
24357;SDS011;13668;52.154;5.580;2023-10-19T13:36:17;3.83;;;1.80;;
24357;SDS011;13668;52.154;5.580;2023-10-19T13:38:44;4.22;;;2.10;;
24357;SDS011;13668;52.154;5.580;2023-10-19T13:41:10;3.58;;;1.58;;
24357;SDS011;13668;52.154;5.580;2023-10-19T13:43:39;4.82;;;1.50;;
24357;SDS011;13668;52.154;5.580;2023-10-19T13:46:07;6.47;;;2.25;;
24357;SDS011;13668;52.154;5.580;2023-10-19T13:48:33;3.05;;;1.58;;
24357;SDS011;13668;52.154;5.580;2023-10-19T13:50:59;4.70;;;1.70;;
24357;SDS011;13668;52.154;5.580;2023-10-19T13:53:26;2.75;;;1.70;;
24357;SDS011;13668;52.154;5.580;2023-10-19T13:55:52;8.85;;;2.47;;
24357;SDS011;13668;52.154;5.580;2023-10-19T13:58:18;4.93;;;1.77;;
24357;SDS011;13668;52.154;5.580;2023-10-19T14:00:44;7.03;;;2.00;;
24357;SDS011;13668;52.154;5.580;2023-10-19T14:03:11;4.10;;;1.50;;
24357;SDS011;13668;52.154;5.580;2023-10-19T14:05:41;5.00;;;1.58;;
24357;SDS011;13668;52.154;5.580;2023-10-19T14:08:14;6.05;;;2.25;;
24357;SDS011;13668;52.154;5.580;2023-10-19T14:10:40;4.78;;;1.55;;
24357;SDS011;13668;52.154;5.580;2023-10-19T14:13:07;6.57;;;1.73;;
24357;SDS011;13668;52.154;5.580;2023-10-19T14:15:33;8.63;;;2.22;;
24357;SDS011;13668;52.154;5.580;2023-10-19T14:17:59;3.03;;;1.50;;
24357;SDS011;13668;52.154;5.580;2023-10-19T14:20:27;5.00;;;1.60;;
24357;SDS011;13668;52.154;5.580;2023-10-19T14:22:53;2.95;;;1.35;;
24357;SDS011;13668;52.154;5.580;2023-10-19T14:25:20;2.85;;;1.25;;
24357;SDS011;13668;52.154;5.580;2023-10-19T14:27:48;4.63;;;1.38;;
24357;SDS011;13668;52.154;5.580;2023-10-19T14:30:21;2.40;;;1.13;;
24357;SDS011;13668;52.154;5.580;2023-10-19T14:32:47;1.40;;;1.23;;
24357;SDS011;13668;52.154;5.580;2023-10-19T14:35:15;3.40;;;1.70;;
24357;SDS011;13668;52.154;5.580;2023-10-19T14:37:44;6.78;;;1.92;;
24357;SDS011;13668;52.154;5.580;2023-10-19T14:40:12;2.97;;;1.70;;
24357;SDS011;13668;52.154;5.580;2023-10-19T14:42:39;3.75;;;1.80;;
24357;SDS011;13668;52.154;5.580;2023-10-19T14:45:08;4.25;;;2.17;;
24357;SDS011;13668;52.154;5.580;2023-10-19T14:47:35;3.85;;;1.50;;
24357;SDS011;13668;52.154;5.580;2023-10-19T14:50:01;6.53;;;1.77;;
24357;SDS011;13668;52.154;5.580;2023-10-19T14:52:28;5.38;;;2.05;;
24357;SDS011;13668;52.154;5.580;2023-10-19T14:54:54;3.75;;;1.55;;
24357;SDS011;13668;52.154;5.580;2023-10-19T14:57:20;6.97;;;2.13;;
24357;SDS011;13668;52.154;5.580;2023-10-19T14:59:46;4.82;;;1.75;;